createdAt,value
2024-04-24T00:00:35.000Z,493
2024-04-24T00:02:45.670Z,491
2024-04-24T00:04:56.000Z,490
2024-04-24T00:07:05.000Z,491
2024-04-24T00:09:16.168Z,492
2024-04-24T00:11:27.000Z,491
2024-04-24T00:13:36.497Z,491
2024-04-24T00:15:46.000Z,492
2024-04-24T00:17:55.849Z,492
2024-04-24T00:20:06.000Z,491
2024-04-24T00:22:16.180Z,490
2024-04-24T00:24:26.355Z,494
2024-04-24T00:26:36.522Z,495
2024-04-24T00:28:47.000Z,492
2024-04-24T00:30:57.000Z,491
2024-04-24T00:33:06.692Z,491
2024-04-24T00:35:17.188Z,491
2024-04-24T00:37:27.357Z,493
2024-04-24T00:39:37.529Z,491
2024-04-24T00:41:47.693Z,489
2024-04-24T00:43:57.000Z,492
2024-04-24T00:46:07.000Z,488
2024-04-24T00:48:18.000Z,488
2024-04-24T00:50:27.385Z,489
2024-04-24T00:52:37.553Z,490
2024-04-24T00:54:47.730Z,492
2024-04-24T00:56:58.000Z,489
2024-04-24T00:59:07.727Z,491
2024-04-24T01:01:18.228Z,492
2024-04-24T01:03:28.060Z,493
2024-04-24T01:05:38.561Z,493
2024-04-24T01:07:49.000Z,495
2024-04-24T01:09:58.562Z,498
2024-04-24T01:12:09.000Z,493
2024-04-24T01:14:18.246Z,490
2024-04-24T01:16:29.000Z,492
2024-04-24T01:18:38.578Z,490
2024-04-24T01:20:48.752Z,487
2024-04-24T01:22:58.000Z,488
2024-04-24T01:25:09.000Z,490
2024-04-24T01:27:17.941Z,491
2024-04-24T01:29:28.440Z,496
2024-04-24T01:31:38.605Z,494
2024-04-24T01:33:48.768Z,495
2024-04-24T01:35:58.940Z,492
2024-04-24T01:38:08.771Z,490
2024-04-24T01:40:19.270Z,488
2024-04-24T01:42:29.437Z,486
2024-04-24T01:44:39.607Z,485
2024-04-24T01:46:49.780Z,486
2024-04-24T01:49:00.000Z,485
2024-04-24T01:51:10.112Z,485
2024-04-24T01:53:20.000Z,486
2024-04-24T01:55:29.124Z,486
2024-04-24T01:57:40.000Z,482
2024-04-24T01:59:49.798Z,482
2024-04-24T02:02:00.000Z,485
2024-04-24T02:04:10.140Z,488
2024-04-24T02:06:21.000Z,488
2024-04-24T02:08:31.000Z,488
2024-04-24T02:10:41.000Z,486
2024-04-24T02:12:51.000Z,485
2024-04-24T02:15:00.983Z,482
2024-04-24T02:17:12.000Z,486
2024-04-24T02:19:22.000Z,486
2024-04-24T02:21:30.499Z,483
2024-04-24T02:23:41.000Z,486
2024-04-24T02:25:50.838Z,487
2024-04-24T02:28:01.005Z,489
2024-04-24T02:30:12.000Z,486
2024-04-24T02:32:22.000Z,488
2024-04-24T02:34:31.519Z,484
2024-04-24T02:36:41.681Z,482
2024-04-24T02:38:52.000Z,485
2024-04-24T02:41:02.000Z,484
2024-04-24T02:43:12.186Z,481
2024-04-24T02:45:22.355Z,480
2024-04-24T02:47:32.527Z,481
2024-04-24T02:49:41.707Z,480
2024-04-24T02:51:52.000Z,477
2024-04-24T02:54:01.694Z,479
2024-04-24T02:56:12.213Z,483
2024-04-24T02:58:23.000Z,486
2024-04-24T03:00:33.000Z,486
2024-04-24T03:02:42.707Z,487
2024-04-24T03:04:52.872Z,484
2024-04-24T03:07:03.034Z,480
2024-04-24T03:09:13.202Z,483
2024-04-24T03:11:23.042Z,483
2024-04-24T03:13:33.538Z,481
2024-04-24T03:15:43.705Z,486
2024-04-24T03:17:52.889Z,484
2024-04-24T03:20:03.064Z,482
2024-04-24T03:22:12.896Z,484
2024-04-24T03:24:23.399Z,485
2024-04-24T03:26:33.570Z,486
2024-04-24T03:28:44.000Z,489
2024-04-24T03:30:53.902Z,487
2024-04-24T03:33:04.070Z,488
2024-04-24T03:35:14.236Z,485
2024-04-24T03:37:24.405Z,485
2024-04-24T03:39:34.578Z,485
2024-04-24T03:41:45.000Z,482
2024-04-24T03:43:54.575Z,485
2024-04-24T03:46:04.096Z,490
2024-04-24T03:48:15.000Z,492
2024-04-24T03:50:25.000Z,492
2024-04-24T03:52:34.601Z,496
2024-04-24T03:54:44.772Z,494
2024-04-24T03:56:54.936Z,495
2024-04-24T03:59:05.113Z,492
2024-04-24T04:01:16.000Z,493
2024-04-24T04:03:26.000Z,492
2024-04-24T04:05:35.612Z,485
2024-04-24T04:07:46.000Z,482
2024-04-24T04:09:55.952Z,482
2024-04-24T04:12:07.000Z,481
2024-04-24T04:14:16.000Z,477
2024-04-24T04:16:26.000Z,473
2024-04-24T04:18:35.641Z,473
2024-04-24T04:20:45.802Z,471
2024-04-24T04:22:55.970Z,466
2024-04-24T04:25:07.000Z,467
2024-04-24T04:27:16.313Z,466
2024-04-24T04:29:26.478Z,467
2024-04-24T04:31:36.644Z,466
2024-04-24T04:33:46.812Z,468
2024-04-24T04:35:56.984Z,468
2024-04-24T04:38:07.157Z,467
2024-04-24T04:40:17.327Z,467
2024-04-24T04:42:26.509Z,463
2024-04-24T04:44:37.000Z,465
2024-04-24T04:46:46.836Z,466
2024-04-24T04:48:57.010Z,464
2024-04-24T04:51:07.171Z,463
2024-04-24T04:53:17.336Z,464
2024-04-24T04:55:27.510Z,462
2024-04-24T04:57:37.680Z,461
2024-04-24T04:59:47.848Z,459
2024-04-24T05:01:58.014Z,460
2024-04-24T05:04:08.182Z,458
2024-04-24T05:06:19.000Z,458
2024-04-24T05:08:28.522Z,457
2024-04-24T05:10:37.700Z,458
2024-04-24T05:12:48.000Z,459
2024-04-24T05:14:58.033Z,455
2024-04-24T05:17:07.863Z,451
2024-04-24T05:19:18.371Z,451
2024-04-24T05:21:28.536Z,455
2024-04-24T05:23:39.000Z,454
2024-04-24T05:25:48.519Z,448
2024-04-24T05:27:58.691Z,443
2024-04-24T05:30:10.000Z,445
2024-04-24T05:32:19.379Z,442
2024-04-24T05:34:29.548Z,445
2024-04-24T05:36:39.364Z,445
2024-04-24T05:38:48.902Z,447
2024-04-24T05:40:58.717Z,447
2024-04-24T05:43:10.000Z,444
2024-04-24T05:45:20.000Z,445
2024-04-24T05:47:29.578Z,444
2024-04-24T05:49:40.000Z,444
2024-04-24T05:51:49.905Z,444
2024-04-24T05:53:59.718Z,441
2024-04-24T05:56:11.000Z,445
2024-04-24T05:58:20.410Z,445
2024-04-24T06:00:30.220Z,439
2024-04-24T06:02:40.740Z,439
2024-04-24T06:04:50.909Z,441
2024-04-24T06:07:00.096Z,441
2024-04-24T06:09:10.266Z,464
2024-04-24T06:11:21.000Z,466
2024-04-24T06:13:30.598Z,465
2024-04-24T06:15:41.000Z,469
2024-04-24T06:17:50.936Z,474
2024-04-24T06:20:01.102Z,473
2024-04-24T06:22:11.267Z,474
2024-04-24T06:24:22.000Z,466
2024-04-24T06:26:31.601Z,466
2024-04-24T06:28:41.770Z,465
2024-04-24T06:30:51.935Z,465
2024-04-24T06:33:03.000Z,469
2024-04-24T06:35:10.932Z,468
2024-04-24T06:37:21.462Z,461
2024-04-24T06:39:31.631Z,460
2024-04-24T06:41:41.438Z,461
2024-04-24T06:43:51.966Z,459
2024-04-24T06:46:01.779Z,457
2024-04-24T06:48:12.295Z,456
2024-04-24T06:50:22.107Z,459
2024-04-24T06:52:33.000Z,458
2024-04-24T06:54:42.797Z,455
2024-04-24T06:56:52.973Z,452
2024-04-24T06:59:04.000Z,454
2024-04-24T07:01:12.947Z,457
2024-04-24T07:03:23.000Z,458
2024-04-24T07:05:32.675Z,459
2024-04-24T07:07:42.846Z,461
2024-04-24T07:09:53.014Z,459
2024-04-24T07:12:04.000Z,458
2024-04-24T07:14:13.352Z,457
2024-04-24T07:16:24.000Z,454
2024-04-24T07:18:33.683Z,451
2024-04-24T07:20:44.000Z,450
2024-04-24T07:22:53.639Z,451
2024-04-24T07:25:04.187Z,451
2024-04-24T07:27:15.000Z,450
2024-04-24T07:29:24.525Z,450
2024-04-24T07:31:33.712Z,451
2024-04-24T07:33:43.872Z,450
2024-04-24T07:35:53.655Z,446
2024-04-24T07:38:03.829Z,449
2024-04-24T07:40:14.381Z,448
2024-04-24T07:42:24.554Z,445
2024-04-24T07:44:34.720Z,446
2024-04-24T07:46:44.888Z,446
2024-04-24T07:48:54.666Z,446
2024-04-24T07:51:05.217Z,442
2024-04-24T07:53:16.000Z,441
2024-04-24T07:55:25.552Z,438
2024-04-24T07:57:35.725Z,439
2024-04-24T07:59:44.520Z,440
2024-04-24T08:01:55.065Z,441
2024-04-24T08:04:04.853Z,439
2024-04-24T08:06:15.387Z,442
2024-04-24T08:08:25.550Z,441
2024-04-24T08:10:35.721Z,440
2024-04-24T08:12:45.884Z,438
2024-04-24T08:14:57.000Z,437
2024-04-24T08:17:05.861Z,439
2024-04-24T08:19:16.387Z,439
2024-04-24T08:21:27.000Z,439
2024-04-24T08:23:37.000Z,438
2024-04-24T08:25:46.894Z,440
2024-04-24T08:27:55.711Z,440
2024-04-24T08:30:05.885Z,438
2024-04-24T08:32:16.411Z,436
2024-04-24T08:34:26.579Z,436
2024-04-24T08:36:36.748Z,434
2024-04-24T08:38:46.552Z,434
2024-04-24T08:40:55.738Z,433
2024-04-24T08:43:06.267Z,430
2024-04-24T08:45:16.435Z,434
2024-04-24T08:47:26.602Z,433
2024-04-24T08:49:36.771Z,435
2024-04-24T08:51:46.573Z,435
2024-04-24T08:53:58.000Z,436
2024-04-24T08:56:06.912Z,433
2024-04-24T08:58:18.000Z,435
2024-04-24T09:00:27.614Z,432
2024-04-24T09:02:37.777Z,434
2024-04-24T09:04:47.943Z,433
2024-04-24T09:06:58.114Z,433
2024-04-24T09:09:06.929Z,434
2024-04-24T09:11:18.000Z,435
2024-04-24T09:13:27.270Z,436
2024-04-24T09:15:38.000Z,437
2024-04-24T09:17:47.960Z,433
2024-04-24T09:19:57.767Z,435
2024-04-24T09:22:08.302Z,437
2024-04-24T09:24:18.098Z,434
2024-04-24T09:26:28.266Z,434
2024-04-24T09:28:38.806Z,435
2024-04-24T09:30:48.968Z,437
2024-04-24T09:32:59.131Z,439
2024-04-24T09:35:10.000Z,438
2024-04-24T09:37:18.481Z,441
2024-04-24T09:39:28.651Z,440
2024-04-24T09:41:38.817Z,437
2024-04-24T09:43:48.985Z,437
2024-04-24T09:45:59.152Z,433
2024-04-24T09:48:09.320Z,432
2024-04-24T09:50:19.487Z,432
2024-04-24T09:52:30.000Z,433
2024-04-24T09:54:39.827Z,428
2024-04-24T09:56:49.997Z,429
2024-04-24T09:59:01.000Z,430
2024-04-24T10:01:10.320Z,431
2024-04-24T10:03:20.503Z,430
2024-04-24T10:05:29.305Z,430
2024-04-24T10:07:39.861Z,432
2024-04-24T10:09:50.029Z,436
2024-04-24T10:11:59.807Z,437
2024-04-24T10:14:10.359Z,440
2024-04-24T10:16:20.140Z,441
2024-04-24T10:18:30.703Z,438
2024-04-24T10:20:40.868Z,436
2024-04-24T10:22:51.000Z,437
2024-04-24T10:25:02.000Z,431
2024-04-24T10:27:10.977Z,424
2024-04-24T10:29:21.531Z,428
2024-04-24T10:31:31.707Z,426
2024-04-24T10:33:40.495Z,430
2024-04-24T10:35:51.054Z,428
2024-04-24T10:38:02.000Z,428
2024-04-24T10:40:11.383Z,429
2024-04-24T10:42:21.553Z,425
2024-04-24T10:44:31.722Z,425
2024-04-24T10:46:41.890Z,424
2024-04-24T10:48:52.000Z,426
2024-04-24T10:51:03.000Z,425
2024-04-24T10:53:13.000Z,422
2024-04-24T10:55:22.561Z,426
2024-04-24T10:57:32.726Z,427
2024-04-24T10:59:42.891Z,427
2024-04-24T11:01:52.069Z,431
2024-04-24T11:04:02.226Z,431
2024-04-24T11:06:12.385Z,432
2024-04-24T11:08:22.549Z,432
2024-04-24T11:10:32.717Z,435
2024-04-24T11:12:42.889Z,434
2024-04-24T11:14:54.000Z,432
2024-04-24T11:17:04.000Z,430
2024-04-24T11:19:13.395Z,430
2024-04-24T11:21:24.000Z,427
2024-04-24T11:23:34.000Z,431
2024-04-24T11:25:43.520Z,428
2024-04-24T11:27:54.059Z,428
2024-04-24T11:30:02.876Z,426
2024-04-24T11:32:14.000Z,429
2024-04-24T11:34:23.581Z,433
2024-04-24T11:36:33.753Z,437
2024-04-24T11:38:43.916Z,438
2024-04-24T11:40:54.081Z,438
2024-04-24T11:43:04.247Z,439
2024-04-24T11:45:14.413Z,438
2024-04-24T11:47:24.583Z,436
2024-04-24T11:49:34.748Z,435
2024-04-24T11:51:44.917Z,433
2024-04-24T11:53:55.084Z,430
2024-04-24T11:56:05.255Z,428
2024-04-24T11:58:14.440Z,426
2024-04-24T12:00:24.612Z,427
2024-04-24T12:02:34.773Z,432
2024-04-24T12:04:44.939Z,431
2024-04-24T12:06:54.732Z,430
2024-04-24T12:09:05.282Z,429
2024-04-24T12:11:15.067Z,426
2024-04-24T12:13:25.234Z,426
2024-04-24T12:15:36.000Z,424
2024-04-24T12:17:46.000Z,429
2024-04-24T12:19:57.000Z,428
2024-04-24T12:22:06.282Z,429
2024-04-24T12:24:16.446Z,430
2024-04-24T12:26:25.632Z,422
2024-04-24T12:28:35.796Z,429
2024-04-24T12:30:45.966Z,429
2024-04-24T12:32:56.134Z,427
2024-04-24T12:35:06.301Z,428
2024-04-24T12:37:16.089Z,427
2024-04-24T12:39:27.000Z,426
2024-04-24T12:41:36.812Z,462
2024-04-24T12:43:46.970Z,474
2024-04-24T12:45:58.000Z,465
2024-04-24T12:48:07.312Z,463
2024-04-24T12:50:17.089Z,462
2024-04-24T12:52:27.639Z,461
2024-04-24T12:54:36.828Z,463
2024-04-24T12:56:46.613Z,461
2024-04-24T12:58:56.779Z,460
2024-04-24T13:01:08.000Z,466
2024-04-24T13:03:18.000Z,465
2024-04-24T13:05:27.662Z,493
2024-04-24T13:07:37.448Z,499
2024-04-24T13:09:48.000Z,506
2024-04-24T13:11:57.778Z,515
2024-04-24T13:14:09.000Z,529
2024-04-24T13:16:18.497Z,537
2024-04-24T13:18:28.666Z,546
2024-04-24T13:20:38.834Z,556
2024-04-24T13:22:49.119Z,568
2024-04-24T13:25:00.000Z,578
2024-04-24T13:27:09.456Z,582
2024-04-24T13:29:19.623Z,591
2024-04-24T13:31:29.792Z,600
2024-04-24T13:33:39.961Z,610
2024-04-24T13:35:51.000Z,618
2024-04-24T13:38:01.000Z,624
2024-04-24T13:40:10.457Z,632
2024-04-24T13:42:21.000Z,640
2024-04-24T13:44:30.799Z,631
2024-04-24T13:46:41.000Z,644
2024-04-24T13:48:50.750Z,650
2024-04-24T13:51:01.000Z,659
2024-04-24T13:53:10.100Z,662
2024-04-24T13:55:20.661Z,652
2024-04-24T13:57:30.818Z,645
2024-04-24T13:59:40.000Z,636
2024-04-24T14:01:50.767Z,625
2024-04-24T14:04:00.935Z,614
2024-04-24T14:06:11.488Z,609
2024-04-24T14:08:21.657Z,601
2024-04-24T14:10:31.827Z,598
2024-04-24T14:12:41.990Z,592
2024-04-24T14:14:53.000Z,594
2024-04-24T14:17:02.325Z,612
2024-04-24T14:19:11.509Z,619
2024-04-24T14:21:21.676Z,624
2024-04-24T14:23:31.845Z,631
2024-04-24T14:25:42.011Z,639
2024-04-24T14:27:53.000Z,645
2024-04-24T14:30:02.345Z,654
2024-04-24T14:32:12.512Z,664
2024-04-24T14:34:22.288Z,669
2024-04-24T14:36:32.455Z,676
2024-04-24T14:38:42.624Z,684
2024-04-24T14:40:54.000Z,691
2024-04-24T14:43:02.960Z,693
2024-04-24T14:45:14.000Z,699
2024-04-24T14:47:22.699Z,699
2024-04-24T14:49:32.477Z,698
2024-04-24T14:51:43.037Z,698
2024-04-24T14:53:54.000Z,707
2024-04-24T14:56:03.375Z,718
2024-04-24T14:58:13.544Z,732
2024-04-24T15:00:23.708Z,730
2024-04-24T15:02:33.875Z,732
2024-04-24T15:04:44.047Z,729
2024-04-24T15:06:54.216Z,737
2024-04-24T15:09:05.000Z,739
2024-04-24T15:11:15.000Z,736
2024-04-24T15:13:24.323Z,730
2024-04-24T15:15:33.910Z,727
2024-04-24T15:17:44.074Z,721
2024-04-24T15:19:53.841Z,712
2024-04-24T15:22:04.408Z,706
2024-04-24T15:24:14.579Z,714
2024-04-24T15:26:24.346Z,720
2024-04-24T15:28:34.914Z,723
2024-04-24T15:30:46.000Z,724
2024-04-24T15:32:56.000Z,723
2024-04-24T15:35:05.000Z,727
2024-04-24T15:37:15.184Z,737
2024-04-24T15:39:26.000Z,738
2024-04-24T15:41:36.000Z,736
2024-04-24T15:43:45.103Z,736
2024-04-24T15:45:56.000Z,743
2024-04-24T15:48:05.000Z,742
2024-04-24T15:50:15.203Z,748
2024-04-24T15:52:26.000Z,755
2024-04-24T15:54:35.538Z,755
2024-04-24T15:56:45.128Z,754
2024-04-24T15:58:56.000Z,752
2024-04-24T16:01:05.061Z,754
2024-04-24T16:03:15.629Z,749
2024-04-24T16:05:25.800Z,746
2024-04-24T16:07:35.968Z,752
2024-04-24T16:09:46.131Z,758
2024-04-24T16:11:57.000Z,759
2024-04-24T16:14:07.000Z,760
2024-04-24T16:16:16.637Z,762
2024-04-24T16:18:26.812Z,759
2024-04-24T16:20:36.972Z,772
2024-04-24T16:22:48.000Z,780
2024-04-24T16:24:57.000Z,780
2024-04-24T16:27:06.494Z,784
2024-04-24T16:29:17.000Z,781
2024-04-24T16:31:26.825Z,790
2024-04-24T16:33:36.992Z,819
2024-04-24T16:35:48.000Z,806
2024-04-24T16:37:58.000Z,803
2024-04-24T16:40:07.490Z,808
2024-04-24T16:42:17.658Z,817
2024-04-24T16:44:27.822Z,823
2024-04-24T16:46:37.992Z,821
2024-04-24T16:48:49.000Z,830
2024-04-24T16:50:58.322Z,832
2024-04-24T16:53:07.516Z,831
2024-04-24T16:55:17.271Z,816
2024-04-24T16:57:27.847Z,758
2024-04-24T16:59:38.015Z,727
2024-04-24T17:01:49.000Z,701
2024-04-24T17:03:58.356Z,691
2024-04-24T17:06:08.517Z,677
2024-04-24T17:08:18.686Z,670
2024-04-24T17:10:28.854Z,658
2024-04-24T17:12:39.024Z,655
2024-04-24T17:14:50.000Z,642
2024-04-24T17:16:59.359Z,633
2024-04-24T17:19:09.110Z,627
2024-04-24T17:21:18.294Z,625
2024-04-24T17:23:28.879Z,632
2024-04-24T17:25:39.043Z,638
2024-04-24T17:27:50.000Z,644
2024-04-24T17:29:59.377Z,644
2024-04-24T17:32:09.550Z,639
2024-04-24T17:34:20.000Z,635
2024-04-24T17:36:29.883Z,628
2024-04-24T17:38:41.000Z,620
2024-04-24T17:40:49.794Z,611
2024-04-24T17:43:01.000Z,613
2024-04-24T17:45:10.126Z,615
2024-04-24T17:47:20.719Z,618
2024-04-24T17:49:30.000Z,620
2024-04-24T17:51:40.070Z,620
2024-04-24T17:53:51.000Z,623
2024-04-24T17:55:59.983Z,628
2024-04-24T17:58:10.571Z,626
2024-04-24T18:00:21.000Z,620
2024-04-24T18:02:31.000Z,609
2024-04-24T18:04:42.000Z,605
2024-04-24T18:06:50.820Z,609
2024-04-24T18:09:01.408Z,610
2024-04-24T18:11:11.568Z,606
2024-04-24T18:13:21.311Z,598
2024-04-24T18:15:31.482Z,599
2024-04-24T18:17:40.666Z,599
2024-04-24T18:19:52.000Z,596
2024-04-24T18:22:01.422Z,595
2024-04-24T18:24:12.000Z,604
2024-04-24T18:26:21.337Z,619
2024-04-24T18:28:31.930Z,624
2024-04-24T18:30:41.670Z,620
2024-04-24T18:32:53.000Z,610
2024-04-24T18:35:03.000Z,609
2024-04-24T18:37:12.599Z,606
2024-04-24T18:39:22.338Z,604
2024-04-24T18:41:33.000Z,605
2024-04-24T18:43:43.095Z,606
2024-04-24T18:45:52.280Z,610
2024-04-24T18:48:02.448Z,606
2024-04-24T18:50:12.189Z,602
2024-04-24T18:52:22.784Z,598
2024-04-24T18:54:33.000Z,595
2024-04-24T18:56:42.691Z,595
2024-04-24T18:58:53.282Z,594
2024-04-24T19:01:04.000Z,582
2024-04-24T19:03:14.000Z,580
2024-04-24T19:05:23.358Z,579
2024-04-24T19:07:34.000Z,597
2024-04-24T19:09:43.698Z,614
2024-04-24T19:11:55.000Z,619
2024-04-24T19:14:03.473Z,619
2024-04-24T19:16:13.647Z,627
2024-04-24T19:18:23.813Z,630
2024-04-24T19:20:33.547Z,630
2024-04-24T19:22:45.000Z,643
2024-04-24T19:24:53.880Z,644
2024-04-24T19:27:04.482Z,644
2024-04-24T19:29:15.000Z,652
2024-04-24T19:31:24.812Z,655
2024-04-24T19:33:34.984Z,662
2024-04-24T19:35:46.000Z,664
2024-04-24T19:37:56.000Z,665
2024-04-24T19:40:06.000Z,662
2024-04-24T19:42:14.668Z,659
2024-04-24T19:44:24.837Z,661
2024-04-24T19:46:35.000Z,657
2024-04-24T19:48:46.000Z,647
2024-04-24T19:50:56.000Z,643
2024-04-24T19:53:05.066Z,633
2024-04-24T19:55:16.000Z,628
2024-04-24T19:57:25.837Z,623
2024-04-24T19:59:36.003Z,624
2024-04-24T20:01:47.000Z,627
2024-04-24T20:03:56.333Z,631
2024-04-24T20:06:07.000Z,646
2024-04-24T20:08:16.233Z,650
2024-04-24T20:10:25.852Z,655
2024-04-24T20:12:36.025Z,661
2024-04-24T20:14:47.000Z,667
2024-04-24T20:16:56.357Z,674
2024-04-24T20:19:06.519Z,674
2024-04-24T20:21:17.000Z,673
2024-04-24T20:23:26.851Z,674
2024-04-24T20:25:37.025Z,673
2024-04-24T20:27:47.187Z,677
2024-04-24T20:29:58.000Z,679
2024-04-24T20:32:07.519Z,678
2024-04-24T20:34:17.686Z,681
2024-04-24T20:36:27.861Z,681
2024-04-24T20:38:36.601Z,684
2024-04-24T20:40:48.000Z,687
2024-04-24T20:42:58.000Z,689
2024-04-24T20:45:07.101Z,691
2024-04-24T20:47:17.712Z,693
2024-04-24T20:49:28.000Z,695
2024-04-24T20:51:39.000Z,703
2024-04-24T20:53:48.212Z,702
2024-04-24T20:55:58.381Z,696
2024-04-24T20:58:09.000Z,698
2024-04-24T21:00:18.715Z,699
2024-04-24T21:02:29.000Z,700
2024-04-24T21:04:39.052Z,704
2024-04-24T21:06:49.000Z,699
2024-04-24T21:08:58.405Z,695
2024-04-24T21:11:08.572Z,699
2024-04-24T21:13:18.294Z,701
2024-04-24T21:15:28.463Z,702
2024-04-24T21:17:40.000Z,705
2024-04-24T21:19:49.247Z,706
2024-04-24T21:21:59.409Z,705
2024-04-24T21:24:09.129Z,705
2024-04-24T21:26:19.744Z,704
2024-04-24T21:28:29.908Z,701
2024-04-24T21:30:39.632Z,698
2024-04-24T21:32:50.244Z,698
2024-04-24T21:34:59.432Z,700
2024-04-24T21:37:09.596Z,694
2024-04-24T21:39:20.000Z,693
2024-04-24T21:41:29.931Z,696
2024-04-24T21:43:40.100Z,697
2024-04-24T21:45:51.000Z,698
2024-04-24T21:48:00.439Z,699
2024-04-24T21:50:11.000Z,695
2024-04-24T21:52:20.324Z,697
2024-04-24T21:54:31.000Z,698
2024-04-24T21:56:41.112Z,697
2024-04-24T21:58:52.000Z,688
2024-04-24T22:01:01.449Z,692
2024-04-24T22:03:11.000Z,692
2024-04-24T22:05:20.352Z,691
2024-04-24T22:07:30.967Z,692
2024-04-24T22:09:41.130Z,691
2024-04-24T22:11:51.296Z,682
2024-04-24T22:14:01.468Z,675
2024-04-24T22:16:11.634Z,661
2024-04-24T22:18:21.804Z,655
2024-04-24T22:20:31.970Z,650
2024-04-24T22:22:43.000Z,639
2024-04-24T22:24:52.303Z,630
2024-04-24T22:27:02.466Z,630
2024-04-24T22:29:12.182Z,618
2024-04-24T22:31:21.821Z,614
2024-04-24T22:33:32.000Z,606
2024-04-24T22:35:43.000Z,602
2024-04-24T22:37:52.329Z,595
2024-04-24T22:40:02.500Z,586
2024-04-24T22:42:12.662Z,572
2024-04-24T22:44:22.826Z,575
2024-04-24T22:46:32.996Z,573
2024-04-24T22:48:43.162Z,566
2024-04-24T22:50:52.876Z,555
2024-04-24T22:53:03.495Z,555
2024-04-24T22:55:13.666Z,548
2024-04-24T22:57:23.836Z,542
2024-04-24T22:59:35.000Z,537
2024-04-24T23:01:44.287Z,535
2024-04-24T23:03:54.457Z,532
2024-04-24T23:06:04.627Z,529
2024-04-24T23:08:15.000Z,528
2024-04-24T23:10:25.000Z,531
2024-04-24T23:12:35.000Z,523
2024-04-24T23:14:44.325Z,522
2024-04-24T23:16:55.000Z,517
2024-04-24T23:19:04.657Z,516
2024-04-24T23:21:14.826Z,511
2024-04-24T23:23:24.988Z,504
2024-04-24T23:25:36.000Z,502
2024-04-24T23:27:44.857Z,501
2024-04-24T23:29:55.485Z,497
2024-04-24T23:32:05.656Z,496
2024-04-24T23:34:15.820Z,494
2024-04-24T23:36:25.988Z,493
2024-04-24T23:38:37.000Z,488
2024-04-24T23:40:45.344Z,487
2024-04-24T23:42:55.510Z,486
2024-04-24T23:45:05.679Z,485
2024-04-24T23:47:15.847Z,484
2024-04-24T23:49:26.015Z,482
2024-04-24T23:51:36.179Z,480
2024-04-24T23:53:46.347Z,477
2024-04-24T23:55:57.000Z,478
2024-04-24T23:58:06.685Z,477
